Flight Track Log - Related Links

Times and Time Zones

All times are in EST time to prevent confusion due to time zone crossing. See the N541JD flight status page for this flight to view local times or setup timezone preferences in your user account.

Time Position Orientation Groundspeed Altitude Reporting Facility
EST Latitude Longitude Course Direction KTS MPH feet Rate Location/Type
Tue 04:15:35 PM 33.2297 -86.7706 119° Southeast 160 184 2,100  Level Atlanta Center
Tue 04:16:41 PM 33.2097 -86.7278 119° Southeast 150 173 3,100 947 Climbing Atlanta Center
Tue 04:17:48 PM 33.1750 -86.6894 137° Southeast 148 170 4,200 281 Climbing Atlanta Center
Tue 04:37:41 PM 32.4667 -85.9333 138° Southeast 184 212 9,000 230 Climbing Atlanta TRACON
Tue 04:38:00 PM 32.3988 -85.9464 138° Southeast  Level FlightAware Approximate
Tue 04:38:40 PM 32.4333 -85.8833 128° Southeast 188 216 9,000  Level Atlanta TRACON
Tue 04:39:00 PM 32.3622 -85.9072 138° Southeast  Level FlightAware Approximate
Tue 04:39:35 PM 32.3833 -85.8500 151° Southeast 182 209 9,100  Level Atlanta TRACON
Tue 04:40:00 PM 32.3255 -85.8680 138° Southeast  Level FlightAware Approximate
Tue 04:40:35 PM 32.3500 -85.8167 140° Southeast 185 213 9,100  Level Atlanta TRACON
Tue 04:41:00 PM 32.2888 -85.8289 138° Southeast  Level FlightAware Approximate
Tue 04:41:35 PM 32.3167 -85.7833 140° Southeast 187 215 9,100  Level Atlanta TRACON
Tue 04:42:00 PM 32.2520 -85.7898 138° Southeast  Level FlightAware Approximate
Tue 04:42:35 PM 32.2833 -85.7333 128° Southeast 186 214 9,000  Level Atlanta TRACON
Tue 04:43:41 PM 32.2333 -85.6833 140° Southeast 185 213 9,000  Level Atlanta TRACON
Tue 04:45:22 PM 32.1683 -85.6242 142° Southeast 183 211 9,000 37 Level Jacksonville Center
Tue 04:46:22 PM 32.1297 -85.5836 138° Southeast 182 209 9,100 50 Climbing Jacksonville Center
Tue 04:47:23 PM 32.0950 -85.5458 137° Southeast 182 209 9,100  Level Jacksonville Center
Tue 04:48:24 PM 32.0539 -85.5056 140° Southeast 183 211 9,100  Level Jacksonville Center
Tue 04:49:24 PM 32.0172 -85.4678 139° Southeast 181 208 9,100  Level Jacksonville Center
Tue 04:50:19 PM 31.9783 -85.4275 139° Southeast 184 212 9,100  Level Jacksonville Center
Tue 04:51:25 PM 31.9394 -85.3872 139° Southeast 182 209 9,100  Level Jacksonville Center
Tue 04:52:26 PM 31.9006 -85.3469 139° Southeast 183 211 9,100  Level Jacksonville Center
Tue 04:53:27 PM 31.8639 -85.3069 137° Southeast 182 209 9,100  Level Jacksonville Center
Tue 04:54:19 PM 31.8289 -85.2717 139° Southeast 183 211 9,100  Level Jacksonville Center
Tue 04:54:33 PM 31.8208 -85.2642 142° Southeast 183 211 9,100  Level Jacksonville Center
Tue 04:55:19 PM 31.7900 -85.2342 140° Southeast 183 211 9,100  Level Jacksonville Center
Tue 04:55:34 PM 31.7797 -85.2217 134° Southeast 183 211 9,100  Level Jacksonville Center
Tue 04:56:19 PM 31.7511 -85.1942 141° Southeast 183 211 9,100  Level Jacksonville Center
Tue 04:56:34 PM 31.7450 -85.1867 134° Southeast 182 209 9,100  Level Jacksonville Center
Tue 04:57:19 PM 31.7122 -85.1539 140° Southeast 183 211 9,100  Level Jacksonville Center
Tue 04:58:19 PM 31.6794 -85.1167 136° Southeast 197 227 9,100  Level Jacksonville Center
Tue 04:59:19 PM 31.6403 -85.0767 139° Southeast 192 221 9,100  Level Jacksonville Center
Tue 05:00:19 PM 31.6033 -85.0392 139° Southeast 187 215 9,100  Level Jacksonville Center
Tue 05:01:19 PM 31.5644 -84.9992 139° Southeast 181 208 9,100  Level Jacksonville Center
Tue 05:02:19 PM 31.5253 -84.9619 141° Southeast 181 208 9,100  Level Jacksonville Center
Tue 05:03:19 PM 31.4906 -84.9244 137° Southeast 181 208 9,100 -50 Level Jacksonville Center
Tue 05:04:19 PM 31.4494 -84.8847 140° Southeast 181 208 9,000 -50 Descending Jacksonville Center
Tue 05:05:19 PM 31.4125 -84.8472 139° Southeast 181 208 9,000  Level Jacksonville Center
Tue 05:06:19 PM 31.3753 -84.8075 138° Southeast 181 208 9,000  Level Jacksonville Center
Tue 05:07:19 PM 31.3383 -84.7681 138° Southeast 181 208 9,000  Level Jacksonville Center
Tue 05:08:19 PM 31.3014 -84.7308 139° Southeast 181 208 9,000  Level Jacksonville Center
Tue 05:09:19 PM 31.2622 -84.6911 139° Southeast 181 208 9,000  Level Jacksonville Center
Tue 05:10:19 PM 31.2253 -84.6539 139° Southeast 181 208 9,000 50 Level Jacksonville Center
Tue 05:11:19 PM 31.1861 -84.6167 141° Southeast 181 208 9,100 50 Climbing Jacksonville Center
Tue 05:12:19 PM 31.1489 -84.5772 138° Southeast 181 208 9,100  Level Jacksonville Center
Tue 05:13:19 PM 31.1119 -84.5403 139° Southeast 181 208 9,100  Level Jacksonville Center
Tue 05:14:19 PM 31.0728 -84.5008 139° Southeast 190 219 9,100  Level Jacksonville Center
Tue 05:15:19 PM 31.0336 -84.4611 139° Southeast 184 212 9,100  Level Jacksonville Center
Tue 05:16:19 PM 30.9964 -84.4219 138° Southeast 184 212 9,100  Level Jacksonville Center
Tue 05:17:19 PM 30.9572 -84.3825 139° Southeast 184 212 9,100  Level Jacksonville Center
Tue 05:18:19 PM 30.9181 -84.3431 139° Southeast 184 212 9,100  Level Jacksonville Center
Tue 05:19:19 PM 30.8789 -84.3039 139° Southeast 184 212 9,100  Level Jacksonville Center
Tue 05:34:43 PM 30.2889 -83.7225 140° Southeast 177 204 9,100  Level Jacksonville Center
Tue 05:35:00 PM 30.3044 -83.7463 140° Southeast  Level FlightAware Approximate
Tue 05:35:43 PM 30.2536 -83.6886 140° Southeast 182 209 9,100  Level Jacksonville Center
Tue 05:36:00 PM 30.2677 -83.7110 140° Southeast  Level FlightAware Approximate
Tue 05:36:43 PM 30.2100 -83.6400 136° Southeast 182 209 9,100  Level Jacksonville Center
Tue 05:37:00 PM 30.2310 -83.6757 140° Southeast  Level FlightAware Approximate
Tue 05:37:43 PM 30.1706 -83.6039 142° Southeast 187 215 9,100  Level Jacksonville Center
Tue 05:38:00 PM 30.1943 -83.6404 140° Southeast  Level FlightAware Approximate
Tue 05:38:43 PM 30.1333 -83.5675 140° Southeast 187 215 9,100  Level Jacksonville Center
Tue 05:39:00 PM 30.1576 -83.6052 140° Southeast  Level FlightAware Approximate
Tue 05:39:43 PM 30.0958 -83.5311 140° Southeast 187 215 9,100  Level Jacksonville Center
Tue 05:40:43 PM 30.0583 -83.4925 138° Southeast 187 215 9,100  Level Jacksonville Center
Tue 05:41:43 PM 30.0189 -83.4564 142° Southeast 187 215 9,100  Level Jacksonville Center
Tue 05:42:43 PM 29.9814 -83.4200 140° Southeast 187 215 9,100  Level Jacksonville Center
Tue 05:43:43 PM 29.9442 -83.3839 140° Southeast 182 209 9,100  Level Jacksonville Center
Tue 05:44:43 PM 29.9067 -83.3478 140° Southeast 182 209 9,100  Level Jacksonville Center
Tue 05:45:43 PM 29.8692 -83.3094 138° Southeast 182 209 9,100  Level Jacksonville Center
Tue 05:46:43 PM 29.8317 -83.2756 142° Southeast 182 209 9,100  Level Jacksonville Center
Tue 05:47:43 PM 29.7942 -83.2372 138° Southeast 182 209 9,100  Level Jacksonville Center
Tue 05:48:43 PM 29.7589 -83.2011 138° Southeast 177 204 9,100 -50 Level Jacksonville Center
Tue 05:49:43 PM 29.7214 -83.1653 140° Southeast 178 205 9,000 -50 Descending Jacksonville Center
Tue 05:50:43 PM 29.6817 -83.1269 140° Southeast 184 212 9,000  Level Jacksonville Center
Tue 05:51:43 PM 29.6400 -83.0886 141° Southeast 179 206 9,000  Level Jacksonville Center
Tue 05:52:43 PM 29.6025 -83.0503 138° Southeast 179 206 9,000  Level Jacksonville Center
Tue 05:53:43 PM 29.5544 -83.0406 170° South 179 206 9,000  Level Jacksonville Center
Tue 05:54:43 PM 29.5044 -83.0261 166° South 173 199 9,000 50 Level Jacksonville Center
Tue 05:55:43 PM 29.4586 -83.0142 167° South 180 207 9,100 50 Climbing Jacksonville Center
Tue 05:56:43 PM 29.4083 -83.0022 168° South 180 207 9,100  Level Jacksonville Center
Tue 05:57:43 PM 29.3603 -82.9903 168° South 180 207 9,100 50 Level Jacksonville Center
Tue 05:58:43 PM 29.3125 -82.9806 170° South 180 207 9,200 50 Climbing Jacksonville Center
Tue 05:59:43 PM 29.2644 -82.9689 168° South 180 207 9,200 -50 Level Jacksonville Center
Tue 06:00:43 PM 29.2164 -82.9567 167° South 180 207 9,100 -50 Descending Jacksonville Center
Tue 06:01:43 PM 29.1683 -82.9450 168° South 180 207 9,100  Level Jacksonville Center
Tue 06:02:43 PM 29.1203 -82.9331 168° South 180 207 9,100  Level Jacksonville Center
Tue 06:03:43 PM 29.0725 -82.9211 168° South 180 207 9,100  Level Jacksonville Center
Tue 06:04:43 PM 29.0264 -82.9092 167° South 180 207 9,100 -200 Level Jacksonville Center
Tue 06:05:43 PM 28.9764 -82.8972 168° South 180 207 8,700 -450 Descending Jacksonville Center
Tue 06:06:43 PM 28.9242 -82.8878 171° South 180 207 8,200 -500 Descending Jacksonville Center
Tue 06:07:43 PM 28.8761 -82.8783 170° South 180 207 7,700 -550 Descending Jacksonville Center
Tue 06:08:43 PM 28.8239 -82.8689 171° South 180 207 7,100 -600 Descending Jacksonville Center
Tue 06:09:43 PM 28.7697 -82.8569 169° South 185 213 6,500 -695 Descending Jacksonville Center
Tue 06:11:27 PM 28.6833 -82.8333 167° South 196 226 5,200 -512 Descending Tampa TRACON
Tue 06:12:27 PM 28.6333 -82.8333 180° South 189 217 5,100 -50 Descending Tampa TRACON
Tue 06:13:27 PM 28.5833 -82.8167 164° South 173 199 5,100 -200 Level Tampa TRACON
Tue 06:14:27 PM 28.5333 -82.8167 180° South 173 199 4,700 -476 Descending Tampa TRACON
Tue 06:15:33 PM 28.4667 -82.8000 168° South 194 223 4,100 -286 Descending Tampa TRACON
Tue 06:16:33 PM 28.4167 -82.8000 180° South 176 203 4,100  Level Tampa TRACON
Tue 06:17:33 PM 28.3833 -82.8000 180° South 159 183 4,100  Level Tampa TRACON
Tue 06:18:33 PM 28.3333 -82.8000 180° South 163 188 4,100  Level Tampa TRACON
Tue 06:19:33 PM 28.2833 -82.8000 180° South 163 188 4,100  Level Tampa TRACON
Tue 06:20:34 PM 28.2500 -82.8000 180° South 158 182 4,100  Level Tampa TRACON
Tue 06:21:34 PM 28.2000 -82.7833 164° South 155 178 4,100 -200 Level Tampa TRACON
Tue 06:22:34 PM 28.1500 -82.7833 180° South 158 182 3,700 -500 Descending Tampa TRACON
Tue 06:23:34 PM 28.1167 -82.7833 180° South 176 203 3,100 -579 Descending Tampa TRACON
Tue 06:24:28 PM 28.0667 -82.7833 180° South 176 203 2,600 -600 Descending Tampa TRACON
Tue 06:25:34 PM 28.0167 -82.7667 164° South 174 200 1,900 -524 Descending Tampa TRACON
Tue 06:26:34 PM 27.9833 -82.7500 156° South 144 166 1,500 -300 Descending Tampa TRACON
Tue 06:27:34 PM 27.9333 -82.7333 164° South 148 170 1,300 -150 Descending Tampa TRACON
Tue 06:28:34 PM 27.9000 -82.7167 156° South 140 161 1,200 -50 Descending Tampa TRACON
Tue 06:29:34 PM 27.8667 -82.7167 180° South 127 146 1,200 -200 Level Tampa TRACON
Tue 06:30:34 PM 27.8667 -82.6833 90° East 94 108 800 -400 Descending Tampa TRACON
Tue 06:31:34 PM 27.8833 -82.6833 360° North 71 82 400 -400 Descending Tampa TRACON
Tue 06:33:00 PM 27.9000 -82.6833 North  Level FlightAware Approximate
Tue 06:40:00 PM 27.9100 -82.6875 North  Level Estimated
Tue 06:41:00 PM 27.9100 -82.6875 North  Level Estimated

Login

Don't have an account? Register now (free) for customized features, flight alerts, and more!